Time;durP1;ratioP1;P1;durP2;ratioP2;P2;SDS_P1;SDS_P2;PMS_P1;PMS_P2;Temp;Humidity;BMP_temperature;BMP_pressure;BME280_temperature;BME280_humidity;BME280_pressure;Samples;Min_cycle;Max_cycle;Signal;HPM_P1;HPM_P2
2021/06/08 00:02:28;;;;;;;6.00;5.53;;;20.50;1.00;;;;;;5079405;28;20470;-70
2021/06/08 00:04:55;;;;;;;5.87;5.40;;;20.40;1.00;;;;;;5078146;28;20462;-70
2021/06/08 00:07:21;;;;;;;5.67;5.10;;;20.40;1.00;;;;;;5078395;28;20470;-69
2021/06/08 00:09:47;;;;;;;5.70;5.10;;;20.40;1.00;;;;;;5077600;28;20484;-69
2021/06/08 00:12:13;;;;;;;5.50;5.10;;;20.30;1.00;;;;;;5078264;28;20462;-69
2021/06/08 00:14:41;;;;;;;5.53;4.87;;;20.20;1.00;;;;;;5078696;28;20462;-69
2021/06/08 00:17:07;;;;;;;5.13;4.73;;;20.20;1.00;;;;;;5078735;28;20454;-70
2021/06/08 00:19:33;;;;;;;7.27;5.27;;;20.20;1.00;;;;;;5078038;28;20458;-70
2021/06/08 00:22:02;;;;;;;6.20;5.80;;;20.20;1.00;;;;;;5077540;28;20466;-70
2021/06/08 00:24:29;;;;;;;5.97;5.47;;;20.10;1.00;;;;;;5077780;28;20442;-70
2021/06/08 00:26:55;;;;;;;5.30;4.90;;;20.10;1.00;;;;;;5078028;28;20462;-70
2021/06/08 00:29:21;;;;;;;7.03;6.33;;;20.10;1.00;;;;;;5077559;28;20749;-69
2021/06/08 00:31:49;;;;;;;6.90;6.00;;;20.10;1.00;;;;;;5077418;28;20973;-69
2021/06/08 00:34:15;;;;;;;6.70;6.07;;;20.00;1.00;;;;;;5077328;28;20524;-69
2021/06/08 00:36:42;;;;;;;6.23;5.73;;;20.00;1.00;;;;;;5077670;28;20454;-70
2021/06/08 00:39:08;;;;;;;6.03;5.20;;;20.00;1.00;;;;;;5077236;28;20457;-70
2021/06/08 00:41:36;;;;;;;6.00;5.50;;;20.00;1.00;;;;;;5077110;28;20473;-70
2021/06/08 00:44:06;;;;;;;5.57;5.07;;;20.00;1.00;;;;;;5076818;28;20915;-70
2021/06/08 00:46:32;;;;;;;6.63;6.03;;;19.90;1.00;;;;;;5077059;28;20451;-70
2021/06/08 00:49:01;;;;;;;6.23;5.60;;;19.90;1.00;;;;;;5076895;28;20482;-69
2021/06/08 00:51:27;;;;;;;6.20;5.70;;;19.80;1.00;;;;;;5077446;28;20469;-70
2021/06/08 00:53:53;;;;;;;7.00;5.80;;;19.70;1.00;;;;;;5076900;28;20915;-70
2021/06/08 00:56:20;;;;;;;6.03;5.63;;;19.70;1.00;;;;;;5080069;28;20468;-70
2021/06/08 00:58:47;;;;;;;6.10;5.60;;;19.70;1.00;;;;;;5082871;28;20514;-70
2021/06/08 01:01:13;;;;;;;6.80;5.80;;;19.70;1.00;;;;;;5083539;28;20454;-70
2021/06/08 01:03:39;;;;;;;6.53;5.97;;;19.70;1.00;;;;;;5083806;28;20517;-70
2021/06/08 01:06:07;;;;;;;7.10;6.23;;;19.70;1.00;;;;;;5083025;28;20450;-70
2021/06/08 01:08:33;;;;;;;6.70;6.00;;;19.70;1.00;;;;;;5080962;28;20966;-70
2021/06/08 01:10:59;;;;;;;6.80;5.73;;;19.60;1.00;;;;;;5079888;28;20516;-70
2021/06/08 01:13:28;;;;;;;6.17;5.67;;;19.60;1.00;;;;;;5080481;28;20454;-70
2021/06/08 01:15:55;;;;;;;7.10;6.50;;;19.60;1.00;;;;;;5079948;28;20488;-70
2021/06/08 01:18:22;;;;;;;7.10;6.40;;;19.60;1.00;;;;;;5078912;28;20511;-70
2021/06/08 01:20:50;;;;;;;14.50;7.10;;;19.60;1.00;;;;;;5083013;28;20450;-69
2021/06/08 01:23:17;;;;;;;6.77;6.10;;;19.50;1.00;;;;;;5081844;28;20488;-70
2021/06/08 01:25:43;;;;;;;7.27;5.80;;;19.50;1.00;;;;;;5081144;28;20523;-69
2021/06/08 01:28:10;;;;;;;7.80;7.00;;;19.40;1.00;;;;;;5081603;28;20497;-71
2021/06/08 01:30:37;;;;;;;7.00;6.40;;;19.40;1.00;;;;;;5082315;28;20451;-70
2021/06/08 01:33:04;;;;;;;8.43;6.00;;;19.40;1.00;;;;;;5077785;28;20782;-70
2021/06/08 01:35:32;;;;;;;7.70;7.00;;;19.40;1.00;;;;;;5076016;28;20462;-70
2021/06/08 01:37:58;;;;;;;7.00;6.40;;;19.30;1.00;;;;;;5075760;28;20461;-70
2021/06/08 01:40:26;;;;;;;7.10;6.40;;;19.30;1.00;;;;;;5076518;28;20462;-70
2021/06/08 01:42:53;;;;;;;6.87;6.27;;;19.30;1.00;;;;;;5076428;28;20458;-70
2021/06/08 01:45:19;;;;;;;6.67;6.17;;;19.20;1.00;;;;;;5075731;28;20459;-70
2021/06/08 01:47:45;;;;;;;8.00;6.40;;;19.20;1.00;;;;;;5075380;28;20474;-70
2021/06/08 01:50:12;;;;;;;8.13;7.33;;;19.10;1.00;;;;;;5075506;28;20458;-70
2021/06/08 01:52:41;;;;;;;7.20;6.60;;;19.10;1.00;;;;;;5075655;28;20462;-70
2021/06/08 01:55:15;;;;;;;7.20;6.50;;;19.10;1.00;;;;;;5074995;28;20458;-70
2021/06/08 01:57:47;;;;;;;6.87;6.27;;;19.10;1.00;;;;;;5075414;28;20443;-70
2021/06/08 02:00:17;;;;;;;7.00;6.40;;;19.10;1.00;;;;;;5075329;28;20457;-70
2021/06/08 02:02:55;;;;;;;6.60;6.00;;;19.10;1.00;;;;;;5075048;28;20909;-70
2021/06/08 02:05:34;;;;;;;7.53;6.90;;;19.10;1.00;;;;;;5074745;28;20775;-70
2021/06/08 02:08:14;;;;;;;7.23;6.63;;;19.10;1.00;;;;;;5075228;28;20470;-70
2021/06/08 02:10:48;;;;;;;7.70;7.00;;;19.10;1.00;;;;;;5075083;28;20453;-70
2021/06/08 02:13:21;;;;;;;7.03;6.43;;;19.10;1.00;;;;;;5075252;28;20442;-70
2021/06/08 02:15:53;;;;;;;7.73;7.07;;;19.10;1.00;;;;;;5074890;28;20442;-70
2021/06/08 02:18:21;;;;;;;8.47;7.30;;;19.00;1.00;;;;;;5075644;28;20434;-70
2021/06/08 02:20:48;;;;;;;7.93;7.13;;;19.00;1.00;;;;;;5075048;28;20465;-70
2021/06/08 02:23:22;;;;;;;8.00;7.13;;;19.00;1.00;;;;;;5074651;28;20482;-70
2021/06/08 02:26:05;;;;;;;7.97;7.27;;;18.90;1.00;;;;;;5041764;28;20478;-70
2021/06/08 02:28:37;;;;;;;8.37;7.47;;;18.80;1.00;;;;;;5074580;28;20478;-70
2021/06/08 02:31:06;;;;;;;7.97;7.27;;;18.80;1.00;;;;;;5075264;28;20454;-70
2021/06/08 02:33:33;;;;;;;7.53;6.80;;;18.80;1.00;;;;;;5074523;28;21001;-70
2021/06/08 02:36:01;;;;;;;7.30;6.70;;;18.70;1.00;;;;;;5074725;28;20484;-70
2021/06/08 02:38:31;;;;;;;7.83;7.13;;;18.70;1.00;;;;;;5074479;28;20488;-70
2021/06/08 02:40:59;;;;;;;7.97;7.27;;;18.70;1.00;;;;;;5074558;28;20454;-70
2021/06/08 02:43:25;;;;;;;7.57;6.83;;;18.70;1.00;;;;;;5074592;28;20454;-70
2021/06/08 02:45:54;;;;;;;7.90;7.20;;;18.70;1.00;;;;;;5074721;28;20458;-70
2021/06/08 02:48:22;;;;;;;12.30;7.07;;;18.70;1.00;;;;;;5074783;28;20478;-70
2021/06/08 02:50:49;;;;;;;7.80;7.20;;;18.70;1.00;;;;;;5074541;28;20458;-70
2021/06/08 02:53:16;;;;;;;7.37;6.77;;;18.70;1.00;;;;;;5074134;28;20454;-70
2021/06/08 02:55:44;;;;;;;7.30;6.70;;;18.60;1.00;;;;;;5074859;28;20470;-70
2021/06/08 02:58:12;;;;;;;7.60;7.00;;;18.70;1.00;;;;;;5074742;28;20454;-70
2021/06/08 03:00:38;;;;;;;7.60;7.00;;;18.70;1.00;;;;;;5074841;28;20480;-70
2021/06/08 03:03:09;;;;;;;7.07;6.53;;;18.70;1.00;;;;;;5074577;28;20519;-70
2021/06/08 03:05:39;;;;;;;9.50;8.03;;;18.70;1.00;;;;;;5074479;28;20472;-70
2021/06/08 03:08:16;;;;;;;10.10;7.50;;;18.70;1.00;;;;;;5074322;28;20547;-70
2021/06/08 03:10:46;;;;;;;9.03;7.17;;;18.70;1.00;;;;;;5074292;28;20443;-70
2021/06/08 03:13:14;;;;;;;9.67;7.50;;;18.70;1.00;;;;;;5074315;28;20473;-70
2021/06/08 03:15:44;;;;;;;7.60;7.00;;;18.70;1.00;;;;;;5074145;28;20454;-70
2021/06/08 03:18:15;;;;;;;8.37;7.67;;;18.70;1.00;;;;;;5077644;28;20458;-70
2021/06/08 03:20:46;;;;;;;9.20;8.40;;;18.80;1.00;;;;;;5077968;28;20894;-70
2021/06/08 03:23:16;;;;;;;8.10;7.17;;;18.70;1.00;;;;;;5077649;28;20482;-70
2021/06/08 03:25:44;;;;;;;8.93;7.23;;;18.70;1.00;;;;;;5078280;28;20469;-70
2021/06/08 03:28:11;;;;;;;9.13;8.20;;;18.70;1.00;;;;;;5078015;28;20550;-70
2021/06/08 03:30:38;;;;;;;8.10;7.40;;;18.70;1.00;;;;;;5078210;28;20462;-70
2021/06/08 03:33:05;;;;;;;8.70;7.80;;;18.70;1.00;;;;;;5077813;28;20743;-70
2021/06/08 03:35:35;;;;;;;9.60;8.30;;;18.70;1.00;;;;;;5078165;28;20469;-70
2021/06/08 03:38:02;;;;;;;8.60;7.80;;;18.70;1.00;;;;;;5077614;28;20465;-70
2021/06/08 03:40:28;;;;;;;8.43;7.63;;;18.70;1.00;;;;;;5077688;28;20458;-70
2021/06/08 03:42:55;;;;;;;8.73;7.93;;;18.70;1.00;;;;;;5078144;28;20465;-70
2021/06/08 03:45:22;;;;;;;8.50;7.60;;;18.70;1.00;;;;;;5077463;28;20461;-70
2021/06/08 03:47:50;;;;;;;9.70;8.03;;;18.70;1.00;;;;;;5077824;28;21026;-70
2021/06/08 03:50:16;;;;;;;8.13;7.37;;;18.70;1.00;;;;;;5077633;28;20458;-70
2021/06/08 03:52:50;;;;;;;8.77;7.90;;;18.70;1.00;;;;;;5077262;28;20458;-70
2021/06/08 03:55:19;;;;;;;8.70;7.70;;;18.70;1.00;;;;;;5077744;28;20447;-70
2021/06/08 03:57:48;;;;;;;8.23;7.40;;;18.70;1.00;;;;;;5077373;28;20599;-70
2021/06/08 04:00:19;;;;;;;8.73;7.93;;;18.80;1.00;;;;;;5077339;28;20465;-70
2021/06/08 04:02:45;;;;;;;9.50;7.87;;;18.80;1.00;;;;;;5077424;28;20446;-70
2021/06/08 04:05:13;;;;;;;8.50;7.70;;;18.80;1.00;;;;;;5077213;28;20515;-70
2021/06/08 04:07:41;;;;;;;7.20;6.60;;;18.80;1.00;;;;;;5077092;28;20473;-70
2021/06/08 04:10:14;;;;;;;8.40;7.60;;;18.90;1.00;;;;;;5077320;28;20465;-71
2021/06/08 04:12:40;;;;;;;7.83;7.00;;;18.90;1.00;;;;;;5077236;28;20465;-70
2021/06/08 04:15:08;;;;;;;7.87;7.03;;;19.00;1.00;;;;;;5077075;28;20451;-70
2021/06/08 04:17:36;;;;;;;7.67;6.87;;;19.00;1.00;;;;;;5077704;28;20450;-70
2021/06/08 04:20:04;;;;;;;7.40;6.70;;;19.10;1.00;;;;;;5077118;28;20786;-70
2021/06/08 04:22:32;;;;;;;7.93;7.13;;;19.20;1.00;;;;;;5076461;28;20486;-70
2021/06/08 04:24:58;;;;;;;7.70;7.10;;;19.20;1.00;;;;;;5076835;28;20462;-70
2021/06/08 04:27:28;;;;;;;8.43;7.73;;;19.20;1.00;;;;;;5076713;28;20458;-70
2021/06/08 04:29:55;;;;;;;7.80;7.20;;;19.30;1.00;;;;;;5076772;28;20454;-70
2021/06/08 04:32:21;;;;;;;8.80;8.03;;;19.30;1.00;;;;;;5077032;28;20457;-70
2021/06/08 04:34:49;;;;;;;8.60;7.70;;;19.30;1.00;;;;;;5077150;28;20465;-70
2021/06/08 04:37:15;;;;;;;9.23;8.43;;;19.30;1.00;;;;;;5076917;28;20466;-70
2021/06/08 04:39:42;;;;;;;8.77;7.97;;;19.40;1.00;;;;;;5076415;28;20459;-70
2021/06/08 04:42:11;;;;;;;7.97;7.27;;;19.30;1.00;;;;;;5077115;28;20469;-70
2021/06/08 04:44:42;;;;;;;9.77;8.40;;;19.30;1.00;;;;;;5076805;28;20454;-70
2021/06/08 04:47:08;;;;;;;8.83;8.03;;;19.30;1.00;;;;;;5076788;28;20443;-70
2021/06/08 04:49:34;;;;;;;9.37;8.40;;;19.30;1.00;;;;;;5076528;28;20490;-70
2021/06/08 04:52:00;;;;;;;8.00;7.27;;;19.20;1.00;;;;;;5076398;28;20462;-70
2021/06/08 04:54:27;;;;;;;48.03;34.50;;;19.10;1.00;;;;;;5076629;28;20454;-70
2021/06/08 04:56:53;;;;;;;14.57;13.03;;;19.10;42.70;;;;;;5076554;28;20454;-70
2021/06/08 04:59:27;;;;;;;10.40;9.27;;;19.10;62.50;;;;;;5076321;28;20679;-70
2021/06/08 05:01:58;;;;;;;8.83;8.03;;;19.20;99.90;;;;;;5076359;28;20439;-70
2021/06/08 05:04:28;;;;;;;8.73;7.70;;;19.20;99.90;;;;;;5076785;28;20445;-70
2021/06/08 05:06:58;;;;;;;9.27;8.47;;;19.20;99.90;;;;;;5076310;28;20561;-70
2021/06/08 05:09:30;;;;;;;9.13;7.73;;;19.30;99.90;;;;;;5076385;28;20941;-70
2021/06/08 05:11:59;;;;;;;9.50;8.60;;;19.30;99.90;;;;;;5076063;28;20442;-70
2021/06/08 05:14:27;;;;;;;8.63;7.87;;;19.30;99.90;;;;;;5076186;28;20469;-70
2021/06/08 05:16:55;;;;;;;9.03;8.33;;;19.40;99.90;;;;;;5075653;28;20458;-70
2021/06/08 05:19:24;;;;;;;8.50;7.80;;;19.40;99.90;;;;;;5076170;28;20474;-70
2021/06/08 05:21:51;;;;;;;8.50;7.80;;;19.40;99.90;;;;;;5075765;28;20461;-70
2021/06/08 05:24:18;;;;;;;8.20;7.50;;;19.50;99.90;;;;;;5076291;28;20453;-70
2021/06/08 05:26:47;;;;;;;9.03;8.23;;;19.50;99.90;;;;;;5075939;28;20458;-70
2021/06/08 05:29:17;;;;;;;9.53;8.57;;;19.60;99.90;;;;;;5075707;28;20478;-70
2021/06/08 05:31:44;;;;;;;9.23;7.60;;;19.60;99.90;;;;;;5075731;28;20458;-71
2021/06/08 05:34:11;;;;;;;11.13;7.77;;;19.70;99.90;;;;;;5075747;28;20523;-69
2021/06/08 05:36:39;;;;;;;9.57;8.70;;;19.70;99.90;;;;;;5076081;28;20465;-69
2021/06/08 05:39:07;;;;;;;9.20;8.40;;;19.80;99.90;;;;;;5075838;28;20482;-69
2021/06/08 05:41:34;;;;;;;8.90;8.20;;;19.80;99.90;;;;;;5074879;28;20459;-69
2021/06/08 05:44:03;;;;;;;8.87;7.97;;;19.90;99.90;;;;;;5075900;28;20794;-72
2021/06/08 05:46:34;;;;;;;7.63;7.03;;;19.90;99.90;;;;;;5075394;28;20944;-73
2021/06/08 05:49:00;;;;;;;8.40;7.50;;;20.00;99.90;;;;;;5075172;28;21014;-70
2021/06/08 05:51:30;;;;;;;8.73;7.67;;;20.10;99.90;;;;;;5075544;28;20465;-71
2021/06/08 05:53:59;;;;;;;8.67;7.87;;;20.20;99.90;;;;;;5077648;28;20763;-71
2021/06/08 05:56:26;;;;;;;11.47;8.27;;;20.40;99.90;;;;;;5077211;28;20953;-70
2021/06/08 05:58:54;;;;;;;8.87;7.97;;;20.50;99.90;;;;;;5075505;28;20542;-70
2021/06/08 06:01:22;;;;;;;7.63;7.00;;;20.60;99.90;;;;;;5075370;28;20473;-70
2021/06/08 06:03:50;;;;;;;9.23;7.50;;;20.70;93.30;;;;;;5074956;28;20454;-70
2021/06/08 06:06:16;;;;;;;8.30;7.60;;;20.80;75.00;;;;;;5074700;28;20953;-71
2021/06/08 06:08:42;;;;;;;8.60;7.90;;;20.90;19.70;;;;;;5075048;28;20528;-70
2021/06/08 06:11:14;;;;;;;8.17;7.40;;;20.90;21.80;;;;;;5075595;28;20462;-70
2021/06/08 06:13:47;;;;;;;8.20;7.50;;;21.00;22.50;;;;;;5075056;28;20446;-71
2021/06/08 06:16:16;;;;;;;8.00;7.30;;;21.10;23.80;;;;;;5075024;28;20481;-69
2021/06/08 06:18:43;;;;;;;7.37;6.70;;;21.10;10.60;;;;;;5074820;28;20455;-70
2021/06/08 06:21:09;;;;;;;8.67;7.83;;;21.30;2.00;;;;;;5075668;28;20833;-71
2021/06/08 06:23:35;;;;;;;8.63;7.93;;;21.40;1.00;;;;;;5074705;28;20822;-71
2021/06/08 06:26:02;;;;;;;9.53;7.37;;;21.50;1.00;;;;;;5074800;28;20469;-70
2021/06/08 06:28:31;;;;;;;9.53;6.37;;;21.60;1.00;;;;;;5075027;28;20810;-71
2021/06/08 06:30:58;;;;;;;7.10;6.50;;;21.70;1.00;;;;;;5074903;28;20453;-70
2021/06/08 06:33:24;;;;;;;8.50;7.60;;;21.80;1.00;;;;;;5074618;28;20455;-70
2021/06/08 06:35:50;;;;;;;7.37;6.63;;;22.00;1.00;;;;;;5074833;28;20500;-70
2021/06/08 06:38:18;;;;;;;7.03;6.40;;;22.10;1.00;;;;;;5074633;28;20532;-71
2021/06/08 06:40:48;;;;;;;8.17;5.97;;;22.20;1.00;;;;;;5074723;28;20466;-70
2021/06/08 06:43:16;;;;;;;7.37;5.97;;;22.30;1.00;;;;;;5074036;28;20450;-71
2021/06/08 06:45:44;;;;;;;6.77;5.97;;;22.40;1.00;;;;;;5074419;28;20449;-70
2021/06/08 06:48:15;;;;;;;6.93;6.33;;;22.40;1.00;;;;;;5074568;28;20554;-71
2021/06/08 06:50:42;;;;;;;7.70;6.30;;;22.40;1.00;;;;;;5074780;28;20489;-70
2021/06/08 06:53:15;;;;;;;6.90;6.30;;;22.30;1.00;;;;;;5078239;28;20454;-71
2021/06/08 06:55:41;;;;;;;8.13;7.30;;;22.30;1.00;;;;;;5078829;28;20450;-69
2021/06/08 06:58:10;;;;;;;10.70;6.47;;;22.30;1.00;;;;;;5078952;28;20450;-70
2021/06/08 07:00:36;;;;;;;9.00;6.90;;;22.20;1.00;;;;;;5079062;28;20462;-72
2021/06/08 07:03:06;;;;;;;6.10;5.70;;;22.10;1.00;;;;;;5078769;28;20454;-71
2021/06/08 07:05:33;;;;;;;6.97;6.30;;;22.10;1.00;;;;;;5079479;28;20458;-71
2021/06/08 07:08:05;;;;;;;7.47;6.70;;;22.10;1.00;;;;;;5079147;28;20494;-69
2021/06/08 07:10:31;;;;;;;12.13;6.10;;;22.10;1.00;;;;;;5079068;28;20835;-70
2021/06/08 07:13:03;;;;;;;8.47;7.47;;;22.10;1.00;;;;;;5078792;28;20458;-69
2021/06/08 07:15:30;;;;;;;7.07;6.50;;;22.10;1.00;;;;;;5078381;28;20587;-71
2021/06/08 07:17:57;;;;;;;7.10;6.40;;;22.10;1.00;;;;;;5078584;28;20528;-70
2021/06/08 07:20:26;;;;;;;7.47;6.23;;;22.10;1.00;;;;;;5078292;28;20826;-69
2021/06/08 07:22:53;;;;;;;7.23;5.90;;;22.20;1.00;;;;;;5077878;28;20493;-69
2021/06/08 07:25:21;;;;;;;9.10;5.90;;;22.30;1.00;;;;;;5078050;28;20937;-71
2021/06/08 07:27:49;;;;;;;7.10;6.40;;;22.30;1.00;;;;;;5077900;28;20453;-70
2021/06/08 07:30:17;;;;;;;6.27;5.83;;;22.40;1.00;;;;;;5078260;28;20837;-70
2021/06/08 07:32:49;;;;;;;6.70;6.13;;;22.40;1.00;;;;;;5077950;28;20473;-70
2021/06/08 07:35:21;;;;;;;6.90;6.10;;;22.50;1.00;;;;;;5078355;28;20438;-70
2021/06/08 07:37:52;;;;;;;6.60;6.07;;;22.50;1.00;;;;;;5078731;28;20460;-69
2021/06/08 07:40:22;;;;;;;6.80;5.60;;;22.60;1.00;;;;;;5078597;28;20446;-71
2021/06/08 07:42:52;;;;;;;5.43;5.03;;;22.70;1.00;;;;;;5078234;28;20788;-71
2021/06/08 07:45:22;;;;;;;5.90;5.40;;;22.80;1.00;;;;;;5077903;28;20458;-70
2021/06/08 07:47:51;;;;;;;10.00;5.30;;;22.80;1.00;;;;;;5077923;28;20815;-70
2021/06/08 07:50:22;;;;;;;8.50;5.27;;;22.90;1.00;;;;;;5078008;28;20454;-71
2021/06/08 07:52:53;;;;;;;6.10;5.47;;;23.00;1.00;;;;;;5077652;28;20442;-71
2021/06/08 07:55:20;;;;;;;6.17;5.23;;;23.10;1.00;;;;;;5078034;28;20459;-70
2021/06/08 07:57:46;;;;;;;6.27;5.77;;;23.20;1.00;;;;;;5077688;28;20454;-70
2021/06/08 08:00:15;;;;;;;7.43;5.47;;;23.30;1.00;;;;;;5077608;28;20465;-71
2021/06/08 08:02:42;;;;;;;7.00;5.40;;;23.40;1.00;;;;;;5077267;28;20458;-70
2021/06/08 08:05:11;;;;;;;6.90;5.10;;;23.50;1.00;;;;;;5076505;28;20472;-71
2021/06/08 08:07:39;;;;;;;4.70;4.23;;;23.60;1.00;;;;;;5077231;28;20550;-71
2021/06/08 08:10:08;;;;;;;5.40;5.00;;;23.60;1.00;;;;;;5077209;28;20615;-69
2021/06/08 08:12:35;;;;;;;6.57;5.60;;;23.70;1.00;;;;;;5077219;28;20469;-71
2021/06/08 08:15:03;;;;;;;6.27;4.83;;;23.80;1.00;;;;;;5077003;28;20465;-69
2021/06/08 08:17:30;;;;;;;7.00;6.40;;;23.80;1.00;;;;;;5076806;28;20462;-69
2021/06/08 08:19:57;;;;;;;5.77;4.93;;;23.90;1.00;;;;;;5076953;28;20461;-69
2021/06/08 08:22:23;;;;;;;6.23;5.47;;;23.90;1.00;;;;;;5076595;28;20486;-70
2021/06/08 08:24:49;;;;;;;6.63;5.70;;;24.00;1.00;;;;;;5077056;28;20461;-70
2021/06/08 08:27:17;;;;;;;7.23;5.27;;;24.00;1.00;;;;;;5076941;28;20458;-68
2021/06/08 08:29:45;;;;;;;7.30;5.00;;;24.10;1.00;;;;;;5076983;28;20962;-69
2021/06/08 08:32:12;;;;;;;9.30;5.40;;;24.20;1.00;;;;;;5077770;28;20458;-71
2021/06/08 08:34:39;;;;;;;6.10;5.50;;;24.20;1.00;;;;;;5077313;28;20473;-69
2021/06/08 08:37:05;;;;;;;4.93;4.63;;;24.30;1.00;;;;;;5076856;28;20940;-70
2021/06/08 08:39:31;;;;;;;5.70;5.27;;;24.30;1.00;;;;;;5076826;28;20458;-70
2021/06/08 08:41:59;;;;;;;5.67;5.27;;;24.30;1.00;;;;;;5076805;28;20777;-70
2021/06/08 08:44:29;;;;;;;7.20;5.73;;;24.40;1.00;;;;;;5076757;28;20454;-69
2021/06/08 08:46:55;;;;;;;6.23;5.73;;;24.40;1.00;;;;;;5076831;28;20454;-69
2021/06/08 08:49:22;;;;;;;6.00;5.50;;;24.50;1.00;;;;;;5076817;28;20478;-69
2021/06/08 08:51:49;;;;;;;6.63;5.97;;;24.50;1.00;;;;;;5076550;28;20788;-70
2021/06/08 08:54:20;;;;;;;7.53;5.53;;;24.60;1.00;;;;;;5076657;28;20464;-68
2021/06/08 08:56:47;;;;;;;6.80;6.30;;;24.70;1.00;;;;;;5076268;28;20895;-70
2021/06/08 08:59:15;;;;;;;11.47;5.97;;;24.80;1.00;;;;;;5076575;28;20454;-69
2021/06/08 09:01:46;;;;;;;7.77;5.90;;;24.80;1.00;;;;;;5076346;28;20465;-69
2021/06/08 09:04:13;;;;;;;6.00;5.03;;;24.90;1.00;;;;;;5076440;28;20478;-70
2021/06/08 09:06:40;;;;;;;4.83;4.43;;;25.00;1.00;;;;;;5076435;28;20458;-70
2021/06/08 09:09:07;;;;;;;5.03;4.63;;;25.00;1.00;;;;;;5076259;28;20537;-69
2021/06/08 09:11:38;;;;;;;4.40;4.10;;;25.10;1.00;;;;;;5076581;28;20458;-69
2021/06/08 09:14:05;;;;;;;4.80;4.40;;;25.10;1.00;;;;;;5076559;28;20905;-69
2021/06/08 09:16:32;;;;;;;3.93;3.73;;;25.20;1.00;;;;;;5075872;28;20763;-70
2021/06/08 09:19:01;;;;;;;5.07;4.57;;;25.30;1.00;;;;;;5076259;28;20529;-70
2021/06/08 09:21:32;;;;;;;4.50;4.10;;;25.30;1.00;;;;;;5076748;28;20518;-70
2021/06/08 09:24:15;;;;;;;5.33;3.73;;;25.30;1.00;;;;;;5075546;28;20484;-70
2021/06/08 09:26:51;;;;;;;5.07;3.70;;;25.40;1.00;;;;;;5076205;28;20466;-68
2021/06/08 09:29:28;;;;;;;4.30;3.90;;;25.50;1.00;;;;;;5076296;28;20489;-68
2021/06/08 09:32:16;;;;;;;4.27;3.87;;;25.50;1.00;;;;;;5076147;28;20434;-69
2021/06/08 09:34:49;;;;;;;4.70;4.30;;;25.60;1.00;;;;;;5075764;28;20465;-69
2021/06/08 09:37:28;;;;;;;7.17;4.73;;;25.60;1.00;;;;;;5076250;28;20463;-69
2021/06/08 09:39:54;;;;;;;5.23;4.40;;;25.70;1.00;;;;;;5077198;28;20435;-70
2021/06/08 09:42:25;;;;;;;4.63;4.27;;;25.80;1.00;;;;;;5075964;28;20461;-68
2021/06/08 09:44:52;;;;;;;5.47;5.00;;;25.90;1.00;;;;;;5075653;28;20555;-68
2021/06/08 09:47:29;;;;;;;5.17;4.67;;;25.90;1.00;;;;;;5075878;28;20454;-69
2021/06/08 09:49:58;;;;;;;5.17;4.67;;;26.00;1.00;;;;;;5075326;28;20488;-69
2021/06/08 09:52:24;;;;;;;5.00;4.00;;;26.00;1.00;;;;;;5075331;28;20774;-69
2021/06/08 09:54:52;;;;;;;4.67;4.27;;;26.10;1.00;;;;;;5075824;28;20454;-70
2021/06/08 09:57:23;;;;;;;5.30;4.47;;;26.20;1.00;;;;;;5077260;28;20453;-71
2021/06/08 09:59:55;;;;;;;5.77;4.37;;;26.30;1.00;;;;;;5077071;28;20465;-70
2021/06/08 10:02:26;;;;;;;5.23;4.83;;;26.40;1.00;;;;;;5076178;28;20439;-70
2021/06/08 10:04:54;;;;;;;4.50;4.17;;;26.50;1.00;;;;;;5075572;28;20446;-69
2021/06/08 10:07:29;;;;;;;5.70;4.23;;;26.60;1.00;;;;;;5074977;28;20454;-69
2021/06/08 10:10:03;;;;;;;4.40;4.10;;;26.80;1.00;;;;;;5075277;28;20957;-68
2021/06/08 10:12:29;;;;;;;4.90;4.60;;;27.00;1.00;;;;;;5075177;28;20462;-68
2021/06/08 10:15:05;;;;;;;4.50;4.20;;;27.10;1.00;;;;;;5075211;28;20454;-70
2021/06/08 10:17:31;;;;;;;5.20;4.80;;;27.20;1.00;;;;;;5075056;28;20503;-69
2021/06/08 10:20:20;;;;;;;7.53;4.70;;;27.40;1.00;;;;;;5075199;28;20473;-69
2021/06/08 10:22:47;;;;;;;5.00;4.60;;;27.70;1.00;;;;;;5074839;28;20482;-69
2021/06/08 10:25:15;;;;;;;4.90;4.50;;;27.70;1.00;;;;;;5076208;28;20462;-69
2021/06/08 10:27:41;;;;;;;5.23;4.87;;;27.70;1.00;;;;;;5074335;28;20466;-69
2021/06/08 10:30:11;;;;;;;5.30;4.83;;;27.70;1.00;;;;;;5074799;28;20474;-69
2021/06/08 10:32:38;;;;;;;4.00;3.80;;;27.70;1.00;;;;;;5074895;28;20454;-68
2021/06/08 10:35:09;;;;;;;4.97;4.67;;;27.80;1.00;;;;;;5074890;28;20524;-69
2021/06/08 10:37:36;;;;;;;6.70;4.90;;;28.00;1.00;;;;;;5074667;28;20887;-68
2021/06/08 10:40:05;;;;;;;4.83;4.53;;;28.00;1.00;;;;;;5074985;28;20450;-69
2021/06/08 10:42:32;;;;;;;5.07;4.67;;;28.10;1.00;;;;;;5075170;28;20910;-70
2021/06/08 10:45:08;;;;;;;5.73;5.00;;;28.10;1.00;;;;;;5074629;28;20489;-69
2021/06/08 10:47:39;;;;;;;5.37;4.90;;;28.10;1.00;;;;;;5074988;28;20453;-70
2021/06/08 10:50:24;;;;;;;5.03;4.63;;;27.90;1.00;;;;;;5074997;28;20528;-69
2021/06/08 10:52:55;;;;;;;5.47;5.07;;;27.70;1.00;;;;;;5075153;28;20439;-69
2021/06/08 10:55:28;;;;;;;5.33;4.93;;;27.50;1.00;;;;;;5075398;28;20529;-69
2021/06/08 10:57:55;;;;;;;5.20;4.80;;;27.30;1.00;;;;;;5075742;28;20438;-69
2021/06/08 11:00:39;;;;;;;5.87;4.97;;;27.10;1.00;;;;;;5075846;28;20461;-69
2021/06/08 11:03:08;;;;;;;4.70;4.40;;;27.00;1.00;;;;;;5076357;28;20473;-70
2021/06/08 11:05:50;;;;;;;5.13;4.63;;;26.90;1.00;;;;;;5075408;28;20454;-68
2021/06/08 11:08:17;;;;;;;5.67;5.27;;;26.90;1.00;;;;;;5073338;28;20569;-68
2021/06/08 11:10:54;;;;;;;5.37;4.93;;;26.80;1.00;;;;;;5075529;28;20462;-69
2021/06/08 11:13:40;;;;;;;5.23;4.83;;;26.80;1.00;;;;;;5074739;28;20485;-69
2021/06/08 11:16:32;;;;;;;6.20;5.10;;;26.90;1.00;;;;;;5074492;28;20922;-69
2021/06/08 11:18:59;;;;;;;5.50;5.10;;;26.80;1.00;;;;;;5074796;28;20450;-68
2021/06/08 11:21:30;;;;;;;5.33;4.93;;;26.90;1.00;;;;;;5075026;28;20782;-68
2021/06/08 11:23:57;;;;;;;43.20;7.73;;;27.00;1.00;;;;;;5074436;28;20546;-68
2021/06/08 11:26:49;;;;;;;5.80;5.30;;;27.00;1.00;;;;;;5074637;28;20458;-68
2021/06/08 11:29:45;;;;;;;5.20;4.70;;;27.30;1.00;;;;;;5073995;28;20536;-68
2021/06/08 11:32:42;;;;;;;5.57;5.07;;;27.60;1.00;;;;;;5074521;28;20458;-69
2021/06/08 11:35:10;;;;;;;5.53;4.93;;;27.90;1.00;;;;;;5075829;28;20446;-68
2021/06/08 11:37:56;;;;;;;11.13;5.10;;;28.40;1.00;;;;;;5075334;28;20454;-70
2021/06/08 11:41:00;;;;;;;4.57;4.27;;;29.10;1.00;;;;;;5077827;28;20431;-71
2021/06/08 11:43:59;;;;;;;4.70;4.40;;;29.90;1.00;;;;;;5078385;28;20506;-68
2021/06/08 11:46:30;;;;;;;4.93;4.53;;;30.10;1.00;;;;;;5077795;28;20438;-69
2021/06/08 11:49:14;;;;;;;5.43;5.03;;;30.00;1.00;;;;;;5077839;28;20466;-69
2021/06/08 11:51:45;;;;;;;4.73;4.43;;;29.80;1.00;;;;;;5077864;28;20464;-69
2021/06/08 11:54:15;;;;;;;6.00;4.53;;;29.70;1.00;;;;;;5077893;28;20450;-69
2021/06/08 11:56:52;;;;;;;5.00;4.70;;;29.50;1.00;;;;;;5077964;28;20922;-68
2021/06/08 11:59:22;;;;;;;5.07;4.67;;;29.40;1.00;;;;;;5078515;28;20434;-68
2021/06/08 12:01:52;;;;;;;4.77;4.47;;;29.30;1.00;;;;;;5077788;28;20469;-68
2021/06/08 12:04:21;;;;;;;5.10;4.70;;;29.20;1.00;;;;;;5078051;28;20504;-69
2021/06/08 12:07:04;;;;;;;4.43;4.03;;;29.30;1.00;;;;;;5077854;28;20545;-69
2021/06/08 12:09:33;;;;;;;4.90;4.03;;;29.70;1.00;;;;;;5077560;28;20478;-68
2021/06/08 12:12:04;;;;;;;4.80;4.40;;;29.90;1.00;;;;;;5077994;28;20450;-68
2021/06/08 12:14:32;;;;;;;5.20;4.77;;;30.00;1.00;;;;;;5077080;28;20901;-68
2021/06/08 12:17:00;;;;;;;5.10;4.70;;;29.90;1.00;;;;;;5077618;28;20462;-69
2021/06/08 12:19:29;;;;;;;4.90;4.50;;;29.80;1.00;;;;;;5077598;28;20787;-67
2021/06/08 12:21:57;;;;;;;5.23;4.30;;;30.10;1.00;;;;;;5077044;28;20465;-69
2021/06/08 12:24:23;;;;;;;4.97;4.57;;;30.30;1.00;;;;;;5077355;28;20443;-68
2021/06/08 12:26:58;;;;;;;4.77;4.37;;;30.50;1.00;;;;;;5076828;28;20457;-69
2021/06/08 12:29:25;;;;;;;5.10;4.10;;;30.90;1.00;;;;;;5077055;28;20478;-69
2021/06/08 12:32:05;;;;;;;4.77;4.37;;;31.40;1.00;;;;;;5077302;28;20458;-69
2021/06/08 12:34:37;;;;;;;5.20;4.70;;;32.40;1.00;;;;;;5077065;28;20523;-69
2021/06/08 12:37:04;;;;;;;4.07;3.77;;;33.00;1.00;;;;;;5076597;28;20882;-68
2021/06/08 12:39:33;;;;;;;5.63;3.90;;;33.70;1.00;;;;;;5077311;28;20918;-68
2021/06/08 12:42:10;;;;;;;4.20;3.80;;;34.40;1.00;;;;;;5077207;28;20462;-68
2021/06/08 12:44:37;;;;;;;4.47;4.17;;;34.40;1.00;;;;;;5077112;28;20458;-68
2021/06/08 12:47:05;;;;;;;6.13;3.97;;;34.10;1.00;;;;;;5076893;28;20561;-69
2021/06/08 12:49:36;;;;;;;4.80;4.50;;;34.00;1.00;;;;;;5076057;28;20482;-68
2021/06/08 12:52:05;;;;;;;4.00;3.70;;;34.10;1.00;;;;;;5076868;28;20537;-69
2021/06/08 12:54:34;;;;;;;5.07;4.67;;;34.40;1.00;;;;;;5076586;28;20458;-69
2021/06/08 12:57:02;;;;;;;4.63;4.33;;;34.50;1.00;;;;;;5076897;28;20458;-69
2021/06/08 12:59:32;;;;;;;4.43;4.13;;;34.20;1.00;;;;;;5076918;28;20793;-69
2021/06/08 13:02:00;;;;;;;4.60;4.30;;;34.00;1.00;;;;;;5076455;28;20458;-69
2021/06/08 13:04:28;;;;;;;4.13;3.73;;;34.00;1.00;;;;;;5076701;28;20459;-68
2021/06/08 13:06:58;;;;;;;4.13;3.83;;;34.00;1.00;;;;;;5077354;28;20461;-69
2021/06/08 13:09:25;;;;;;;4.70;4.20;;;33.80;1.00;;;;;;5077957;28;20478;-70